Time;durP1;ratioP1;P1;durP2;ratioP2;P2;SDS_P1;SDS_P2;PMS_P1;PMS_P2;Temp;Humidity;BMP_temperature;BMP_pressure;BME280_temperature;BME280_humidity;BME280_pressure;Samples;Min_cycle;Max_cycle;Signal;HPM_P1;HPM_P2
2021/04/20 00:00:28;;;;;;;56.80;36.20;;;10.40;88.30;;;;;;5134461;27;20058;-71
2021/04/20 00:02:54;;;;;;;53.72;33.97;;;10.40;88.30;;;;;;5134209;27;20050;-71
2021/04/20 00:05:20;;;;;;;52.47;33.15;;;10.30;88.30;;;;;;5134152;27;20035;-72
2021/04/20 00:07:47;;;;;;;55.03;34.55;;;10.30;88.40;;;;;;5134152;27;20054;-71
2021/04/20 00:10:19;;;;;;;48.20;31.42;;;10.30;88.50;;;;;;5133251;28;20422;-72
2021/04/20 00:12:47;;;;;;;48.70;32.72;;;10.30;88.60;;;;;;5134228;27;20402;-71
2021/04/20 00:15:20;;;;;;;52.58;33.80;;;10.20;88.70;;;;;;5132436;28;20035;-71
2021/04/20 00:17:46;;;;;;;54.42;34.30;;;10.20;88.90;;;;;;5133889;27;20398;-71
2021/04/20 00:20:13;;;;;;;55.67;36.17;;;10.10;88.80;;;;;;5133905;27;20071;-71
2021/04/20 00:22:39;;;;;;;54.80;34.65;;;10.10;89.00;;;;;;5133992;27;20039;-71
2021/04/20 00:25:05;;;;;;;54.85;34.45;;;10.00;89.00;;;;;;5133751;27;20039;-71
2021/04/20 00:27:31;;;;;;;52.55;34.63;;;10.00;89.30;;;;;;5137528;27;20034;-71
2021/04/20 00:29:57;;;;;;;57.40;37.28;;;10.00;89.70;;;;;;5137662;27;20028;-71
2021/04/20 00:32:22;;;;;;;58.80;36.63;;;9.80;89.90;;;;;;5137940;27;20043;-71
2021/04/20 00:34:48;;;;;;;58.50;34.67;;;9.80;90.10;;;;;;5137288;27;20039;-71
2021/04/20 00:37:14;;;;;;;52.00;33.03;;;9.80;90.20;;;;;;5137564;27;20040;-71
2021/04/20 00:39:41;;;;;;;53.80;34.15;;;9.80;90.00;;;;;;5137985;27;20031;-71
2021/04/20 00:42:08;;;;;;;61.92;38.75;;;9.80;90.10;;;;;;5137458;27;20478;-71
2021/04/20 00:44:35;;;;;;;68.70;42.95;;;9.70;90.30;;;;;;5135904;27;20399;-71
2021/04/20 00:47:02;;;;;;;68.53;41.03;;;9.60;90.30;;;;;;5137374;27;20046;-71
2021/04/20 00:49:29;;;;;;;55.58;36.67;;;9.60;90.40;;;;;;5137521;27;20031;-71
2021/04/20 00:51:55;;;;;;;53.45;34.40;;;9.60;90.50;;;;;;5137712;27;20039;-71
2021/04/20 00:54:22;;;;;;;49.45;33.47;;;9.60;90.60;;;;;;5136514;27;20159;-71
2021/04/20 00:56:48;;;;;;;50.35;33.60;;;9.60;90.60;;;;;;5136927;27;20078;-71
2021/04/20 00:59:14;;;;;;;52.28;35.03;;;9.60;90.60;;;;;;5137061;27;20035;-71
2021/04/20 01:01:41;;;;;;;54.90;34.28;;;9.60;90.60;;;;;;5137113;27;20039;-71
2021/04/20 01:04:16;;;;;;;56.88;35.80;;;9.60;90.60;;;;;;5136245;27;20043;-71
2021/04/20 01:06:43;;;;;;;55.58;37.08;;;9.70;90.60;;;;;;5136956;27;20031;-71
2021/04/20 01:09:10;;;;;;;58.53;37.70;;;9.60;90.70;;;;;;5137362;27;20074;-71
2021/04/20 01:11:37;;;;;;;56.28;35.88;;;9.60;90.70;;;;;;5136863;27;20039;-71
2021/04/20 01:14:04;;;;;;;49.90;33.10;;;9.50;91.00;;;;;;5136970;27;20053;-71
2021/04/20 01:16:32;;;;;;;51.30;34.53;;;9.50;90.90;;;;;;5136832;27;20087;-71
2021/04/20 01:18:58;;;;;;;48.78;32.97;;;9.50;91.00;;;;;;5137147;27;20390;-71
2021/04/20 01:21:24;;;;;;;53.08;34.53;;;9.60;90.90;;;;;;5136585;27;20466;-71
2021/04/20 01:24:08;;;;;;;51.05;33.63;;;9.60;90.90;;;;;;5137134;27;20043;-71
2021/04/20 01:26:35;;;;;;;52.78;33.13;;;9.60;91.10;;;;;;5136166;27;20037;-71
2021/04/20 01:29:02;;;;;;;51.22;34.35;;;9.60;91.00;;;;;;5136719;27;20046;-71
2021/04/20 01:31:30;;;;;;;50.55;33.50;;;9.60;91.20;;;;;;5136357;27;20043;-71
2021/04/20 01:33:56;;;;;;;56.40;34.28;;;9.60;91.10;;;;;;5135440;27;20043;-71
2021/04/20 01:36:23;;;;;;;55.35;35.63;;;9.60;91.10;;;;;;5136107;27;20039;-71
2021/04/20 01:38:51;;;;;;;53.78;35.78;;;9.60;91.30;;;;;;5135612;27;20502;-71
2021/04/20 01:41:18;;;;;;;52.30;36.65;;;9.60;91.40;;;;;;5136398;27;20490;-71
2021/04/20 01:43:45;;;;;;;54.58;35.42;;;9.50;91.50;;;;;;5136426;27;20051;-71
2021/04/20 01:46:13;;;;;;;53.13;33.97;;;9.40;91.40;;;;;;5136166;27;20088;-71
2021/04/20 01:48:38;;;;;;;55.30;36.53;;;9.40;91.40;;;;;;5135918;27;20039;-71
2021/04/20 01:51:04;;;;;;;50.70;34.65;;;9.40;91.40;;;;;;5136128;27;20031;-71
2021/04/20 01:53:32;;;;;;;58.85;36.50;;;9.40;91.40;;;;;;5136182;27;20451;-71
2021/04/20 01:56:06;;;;;;;60.05;38.53;;;9.40;91.40;;;;;;5135627;27;20035;-71
2021/04/20 01:58:33;;;;;;;55.83;36.40;;;9.30;91.60;;;;;;5136454;27;20443;-71
2021/04/20 02:01:05;;;;;;;58.50;35.92;;;9.30;91.60;;;;;;5135868;27;20487;-71
2021/04/20 02:03:31;;;;;;;52.88;36.05;;;9.30;92.10;;;;;;5135906;27;20043;-71
2021/04/20 02:05:58;;;;;;;55.33;35.60;;;9.20;91.60;;;;;;5135731;27;20386;-71
2021/04/20 02:08:24;;;;;;;56.47;37.47;;;9.20;91.80;;;;;;5135592;27;20103;-71
2021/04/20 02:10:51;;;;;;;51.65;35.35;;;9.20;91.70;;;;;;5135743;27;20395;-71
2021/04/20 02:13:17;;;;;;;56.08;34.28;;;9.10;91.80;;;;;;5136126;27;20039;-71
2021/04/20 02:15:43;;;;;;;55.72;35.97;;;9.10;91.80;;;;;;5135289;27;20042;-71
2021/04/20 02:18:10;;;;;;;54.67;34.70;;;9.10;91.80;;;;;;5135747;27;20128;-71
2021/04/20 02:20:38;;;;;;;54.10;34.20;;;9.20;91.90;;;;;;5134361;27;20031;-71
2021/04/20 02:23:05;;;;;;;53.10;34.85;;;9.10;92.00;;;;;;5135618;27;20035;-71
2021/04/20 02:25:31;;;;;;;53.42;34.63;;;8.90;92.20;;;;;;5135075;27;20038;-71
2021/04/20 02:27:57;;;;;;;51.47;33.90;;;8.90;92.30;;;;;;5135179;27;20108;-71
2021/04/20 02:30:24;;;;;;;50.55;33.00;;;9.00;92.20;;;;;;5135103;27;20481;-71
2021/04/20 02:32:50;;;;;;;49.60;33.63;;;9.00;92.20;;;;;;5135557;27;20039;-71
2021/04/20 02:35:18;;;;;;;47.20;32.58;;;9.00;92.20;;;;;;5135123;27;20039;-71
2021/04/20 02:37:45;;;;;;;49.35;33.92;;;9.00;92.30;;;;;;5134851;27;20110;-71
2021/04/20 02:40:21;;;;;;;53.50;32.90;;;9.00;92.30;;;;;;5135213;27;20050;-71
2021/04/20 02:42:49;;;;;;;49.55;32.28;;;9.00;92.40;;;;;;5134816;27;20114;-71
2021/04/20 02:45:19;;;;;;;55.70;34.15;;;8.90;92.30;;;;;;5134757;27;20117;-71
2021/04/20 02:47:47;;;;;;;55.38;32.47;;;8.80;92.60;;;;;;5134815;27;20489;-71
2021/04/20 02:50:16;;;;;;;52.25;34.28;;;8.80;92.60;;;;;;5133879;27;20077;-71
2021/04/20 02:52:45;;;;;;;48.15;32.88;;;8.90;92.60;;;;;;5134921;27;20046;-71
2021/04/20 02:55:12;;;;;;;51.08;32.30;;;8.90;92.50;;;;;;5134914;27;20108;-71
2021/04/20 02:57:43;;;;;;;48.55;32.63;;;9.00;92.80;;;;;;5135063;27;20134;-71
2021/04/20 03:00:15;;;;;;;45.47;33.10;;;9.00;92.40;;;;;;5134924;27;20493;-71
2021/04/20 03:02:46;;;;;;;48.80;32.78;;;9.10;92.30;;;;;;5135200;27;20035;-71
2021/04/20 03:05:17;;;;;;;46.20;32.42;;;9.00;92.30;;;;;;5134395;27;20096;-71
2021/04/20 03:07:44;;;;;;;49.40;31.88;;;9.10;92.30;;;;;;5134335;27;20558;-71
2021/04/20 03:10:11;;;;;;;53.15;34.17;;;9.10;92.20;;;;;;5134574;27;20397;-71
2021/04/20 03:12:41;;;;;;;53.17;34.25;;;9.10;92.30;;;;;;5134569;27;20074;-71
2021/04/20 03:15:10;;;;;;;50.10;34.92;;;9.10;92.20;;;;;;5134322;27;20440;-71
2021/04/20 03:17:47;;;;;;;52.83;32.50;;;9.00;92.30;;;;;;5134344;27;20035;-71
2021/04/20 03:20:15;;;;;;;48.40;32.88;;;8.90;92.30;;;;;;5134426;27;20039;-71
2021/04/20 03:22:44;;;;;;;49.03;32.55;;;9.00;92.30;;;;;;5134310;27;20356;-71
2021/04/20 03:25:10;;;;;;;46.03;33.42;;;9.10;92.30;;;;;;5134261;27;20494;-71
2021/04/20 03:27:44;;;;;;;50.45;33.15;;;9.10;92.20;;;;;;5133441;27;20039;-71
2021/04/20 03:30:15;;;;;;;46.97;32.20;;;9.10;92.20;;;;;;5134395;27;20031;-71
2021/04/20 03:32:47;;;;;;;48.58;32.90;;;9.10;92.30;;;;;;5134888;27;20175;-71
2021/04/20 03:35:23;;;;;;;50.75;33.33;;;9.10;92.10;;;;;;5132961;27;20371;-71
2021/04/20 03:38:15;;;;;;;50.70;33.33;;;9.10;92.10;;;;;;5133260;28;20110;-71
2021/04/20 03:40:55;;;;;;;49.03;34.03;;;9.20;92.10;;;;;;5133563;28;20040;-71
2021/04/20 03:43:23;;;;;;;51.55;34.17;;;9.10;92.20;;;;;;5134156;27;20043;-71
2021/04/20 03:46:03;;;;;;;50.65;33.45;;;9.10;92.20;;;;;;5115931;28;20502;-71
2021/04/20 03:48:42;;;;;;;52.40;32.85;;;9.00;92.20;;;;;;5134550;27;20045;-71
2021/04/20 03:51:16;;;;;;;53.67;34.58;;;9.00;92.20;;;;;;5134784;27;20038;-71
2021/04/20 03:53:50;;;;;;;50.33;32.63;;;9.00;92.20;;;;;;5134329;27;20031;-71
2021/04/20 03:56:18;;;;;;;50.70;34.28;;;9.00;92.10;;;;;;5133663;27;20042;-71
2021/04/20 03:58:45;;;;;;;48.50;32.72;;;9.00;92.10;;;;;;5134142;27;20035;-71
2021/04/20 04:01:13;;;;;;;48.75;33.30;;;8.90;92.10;;;;;;5136058;27;20540;-71
2021/04/20 04:03:40;;;;;;;52.88;34.88;;;8.80;92.10;;;;;;5138025;27;20155;-71
2021/04/20 04:06:08;;;;;;;52.75;34.30;;;8.80;92.10;;;;;;5136374;27;20035;-71
2021/04/20 04:08:36;;;;;;;48.67;33.67;;;8.70;92.10;;;;;;5137865;27;20118;-71
2021/04/20 04:11:04;;;;;;;48.47;34.13;;;8.80;92.30;;;;;;5136563;27;20479;-71
2021/04/20 04:13:32;;;;;;;55.60;34.65;;;8.70;92.40;;;;;;5136765;27;20042;-71
2021/04/20 04:16:02;;;;;;;49.45;33.80;;;8.70;92.40;;;;;;5137626;27;20035;-71
2021/04/20 04:18:31;;;;;;;52.25;35.03;;;8.60;92.40;;;;;;5138444;27;20081;-71
2021/04/20 04:21:01;;;;;;;46.03;31.85;;;8.60;92.50;;;;;;5137694;27;20059;-71
2021/04/20 04:23:45;;;;;;;51.88;35.47;;;8.60;92.40;;;;;;5136722;27;20043;-71
2021/04/20 04:26:13;;;;;;;;;;;8.60;92.50;;;;;;5137871;27;20039;-71
2021/04/20 04:28:44;;;;;;;50.83;33.88;;;8.50;92.80;;;;;;5137555;27;19915;-71
2021/04/20 04:31:10;;;;;;;49.05;33.47;;;8.50;92.60;;;;;;5137638;27;20062;-71
2021/04/20 04:33:40;;;;;;;51.42;34.75;;;8.50;92.40;;;;;;5137605;27;20115;-71
2021/04/20 04:36:08;;;;;;;49.00;32.67;;;8.50;92.60;;;;;;5137263;27;20401;-71
2021/04/20 04:38:34;;;;;;;52.42;32.00;;;8.50;92.50;;;;;;5136536;27;20106;-71
2021/04/20 04:41:01;;;;;;;46.88;31.42;;;8.50;92.50;;;;;;5137562;27;20039;-71
2021/04/20 04:43:27;;;;;;;48.15;31.52;;;8.50;92.40;;;;;;5137983;27;20035;-71
2021/04/20 04:45:57;;;;;;;46.95;32.35;;;8.50;92.40;;;;;;5136960;27;20039;-71
2021/04/20 04:48:43;;;;;;;52.50;32.67;;;8.50;92.40;;;;;;5136621;27;20116;-71
2021/04/20 04:51:10;;;;;;;54.58;31.50;;;8.40;92.50;;;;;;5137571;27;20032;-71
2021/04/20 04:53:39;;;;;;;51.13;33.72;;;8.40;92.40;;;;;;5135885;27;20031;-71
2021/04/20 04:56:06;;;;;;;48.75;30.98;;;8.40;92.40;;;;;;5135618;27;20042;-71
2021/04/20 04:58:35;;;;;;;48.75;34.03;;;8.40;92.40;;;;;;5136855;27;20027;-71
2021/04/20 05:01:02;;;;;;;50.65;32.92;;;8.50;92.50;;;;;;5135791;27;20031;-71
2021/04/20 05:03:28;;;;;;;47.38;32.28;;;8.50;92.40;;;;;;5137155;27;20038;-71
2021/04/20 05:05:56;;;;;;;50.88;30.63;;;8.60;92.30;;;;;;5136706;27;20153;-71
2021/04/20 05:08:22;;;;;;;46.45;30.75;;;8.60;92.50;;;;;;5136139;27;20058;-71
2021/04/20 05:10:51;;;;;;;51.70;31.30;;;8.70;92.10;;;;;;5135399;27;20031;-71
2021/04/20 05:13:18;;;;;;;50.45;34.50;;;8.80;92.10;;;;;;5135312;27;20528;-71
2021/04/20 05:15:44;;;;;;;52.63;35.35;;;8.80;92.10;;;;;;5136341;27;20079;-71
2021/04/20 05:18:11;;;;;;;51.95;33.33;;;8.80;92.20;;;;;;5136921;27;20113;-71
2021/04/20 05:20:41;;;;;;;50.80;33.42;;;8.80;92.10;;;;;;5136338;27;20042;-71
2021/04/20 05:23:07;;;;;;;46.42;31.70;;;8.90;92.00;;;;;;5137109;27;20050;-71
2021/04/20 05:25:33;;;;;;;46.10;30.45;;;9.00;91.90;;;;;;5135280;27;20054;-71
2021/04/20 05:28:00;;;;;;;45.63;31.63;;;9.10;91.80;;;;;;5137026;27;20083;-71
2021/04/20 05:30:26;;;;;;;47.78;31.77;;;9.20;91.60;;;;;;5136637;27;20459;-71
2021/04/20 05:32:54;;;;;;;42.78;29.23;;;9.40;91.40;;;;;;5136790;27;20035;-71
2021/04/20 05:35:22;;;;;;;42.13;28.77;;;9.50;90.90;;;;;;5135139;27;20062;-71
2021/04/20 05:37:48;;;;;;;48.45;29.33;;;9.60;90.60;;;;;;5136045;27;20399;-71
2021/04/20 05:40:21;;;;;;;42.38;28.38;;;9.70;90.50;;;;;;5135008;27;20046;-71
2021/04/20 05:42:47;;;;;;;41.70;27.08;;;9.80;90.20;;;;;;5136358;27;20044;-71
2021/04/20 05:45:15;;;;;;;38.13;27.52;;;9.90;89.40;;;;;;5134704;27;20093;-71
2021/04/20 05:47:43;;;;;;;39.92;26.73;;;9.90;89.00;;;;;;5136461;27;20031;-71
2021/04/20 05:50:14;;;;;;;32.95;24.27;;;10.10;88.30;;;;;;5135838;27;20088;-71
2021/04/20 05:52:40;;;;;;;36.10;23.67;;;10.30;87.70;;;;;;5136513;27;20091;-71
2021/04/20 05:55:07;;;;;;;32.38;23.85;;;10.40;86.30;;;;;;5135673;27;20039;-71
2021/04/20 05:57:33;;;;;;;36.78;24.35;;;10.50;86.30;;;;;;5135612;27;20046;-71
2021/04/20 06:00:00;;;;;;;33.03;22.65;;;10.60;85.80;;;;;;5136206;27;20039;-71
2021/04/20 06:02:30;;;;;;;32.85;22.80;;;10.70;85.50;;;;;;5135680;27;20394;-71
2021/04/20 06:05:05;;;;;;;29.45;22.25;;;10.80;84.30;;;;;;5135383;27;20031;-71
2021/04/20 06:07:35;;;;;;;30.45;21.67;;;11.00;83.70;;;;;;5135832;27;20367;-71
2021/04/20 06:10:08;;;;;;;31.35;22.13;;;11.20;83.20;;;;;;5134261;27;20410;-71
2021/04/20 06:12:35;;;;;;;27.75;20.13;;;11.20;82.00;;;;;;5134314;27;20050;-71
2021/04/20 06:15:01;;;;;;;27.35;20.05;;;11.20;81.10;;;;;;5135588;27;20038;-71
2021/04/20 06:17:28;;;;;;;31.42;19.73;;;11.40;80.70;;;;;;5135630;27;20114;-71
2021/04/20 06:19:54;;;;;;;29.55;19.55;;;11.50;80.10;;;;;;5135365;27;20356;-71
2021/04/20 06:22:20;;;;;;;25.10;17.63;;;11.70;79.20;;;;;;5135635;27;20078;-71
2021/04/20 06:24:46;;;;;;;24.85;17.13;;;11.60;78.90;;;;;;5134922;27;20043;-71
2021/04/20 06:27:13;;;;;;;25.88;17.73;;;11.80;77.90;;;;;;5135562;27;20451;-71
2021/04/20 06:29:39;;;;;;;25.65;16.42;;;12.00;77.70;;;;;;5135808;27;20481;-71
2021/04/20 06:32:06;;;;;;;23.83;16.98;;;12.20;76.60;;;;;;5135889;27;20117;-71
2021/04/20 06:34:32;;;;;;;23.55;15.88;;;12.30;76.30;;;;;;5134874;27;20042;-72
2021/04/20 06:36:59;;;;;;;21.30;15.13;;;12.30;75.60;;;;;;5133660;27;20031;-71
2021/04/20 06:39:25;;;;;;;26.13;15.05;;;12.50;73.70;;;;;;5133918;27;20042;-71
2021/04/20 06:41:55;;;;;;;20.65;15.00;;;12.50;72.60;;;;;;5134847;27;20471;-71
2021/04/20 06:44:25;;;;;;;25.60;16.90;;;12.60;72.30;;;;;;5135458;27;20051;-71
2021/04/20 06:46:53;;;;;;;24.25;15.20;;;12.70;71.40;;;;;;5135090;27;20043;-69
2021/04/20 06:49:24;;;;;;;23.08;14.13;;;12.80;71.30;;;;;;5135255;27;20054;-70
2021/04/20 06:51:53;;;;;;;22.92;16.13;;;12.80;70.50;;;;;;5134023;27;20039;-70
2021/04/20 06:55:04;;;;;;;22.17;14.63;;;12.70;70.40;;;;;;5135407;27;20036;-70
2021/04/20 06:57:39;;;;;;;21.52;14.80;;;12.80;69.80;;;;;;5132473;27;20075;-70
2021/04/20 07:00:05;;;;;;;22.33;15.50;;;12.90;70.30;;;;;;5135107;27;20035;-70
2021/04/20 07:02:55;;;;;;;24.10;14.23;;;13.10;70.10;;;;;;5133386;27;20035;-70
2021/04/20 07:05:30;;;;;;;22.00;14.27;;;13.20;70.10;;;;;;5134700;27;20050;-70
2021/04/20 07:08:04;;;;;;;21.75;15.00;;;13.30;69.10;;;;;;5134338;27;20391;-70
2021/04/20 07:10:42;;;;;;;20.60;13.55;;;13.40;68.00;;;;;;5133581;27;20059;-70
2021/04/20 07:13:11;;;;;;;19.80;12.80;;;13.40;68.00;;;;;;5134651;27;20092;-70
2021/04/20 07:15:44;;;;;;;19.95;13.85;;;13.60;68.60;;;;;;5134253;27;20035;-70
2021/04/20 07:18:46;;;;;;;22.63;13.50;;;13.80;66.70;;;;;;5134817;27;20035;-71
2021/04/20 07:21:18;;;;;;;15.73;12.02;;;13.80;65.90;;;;;;5134732;27;20034;-70
2021/04/20 07:24:09;;;;;;;15.40;10.52;;;13.80;64.30;;;;;;5134511;27;20050;-70
2021/04/20 07:26:45;;;;;;;14.82;10.75;;;13.90;64.10;;;;;;5134201;27;20039;-70
2021/04/20 07:29:45;;;;;;;16.05;10.70;;;14.00;62.90;;;;;;5133091;27;20084;-69
2021/04/20 07:32:32;;;;;;;18.85;10.80;;;14.10;62.10;;;;;;5134811;27;20462;-70
2021/04/20 07:35:06;;;;;;;17.88;10.32;;;14.30;62.20;;;;;;5133532;27;20039;-70
2021/04/20 07:38:07;;;;;;;;;;;14.40;62.10;;;;;;5134809;27;20035;-70
2021/04/20 07:40:41;;;;;;;15.40;10.15;;;14.40;61.40;;;;;;5074383;28;20349;-70
2021/04/20 07:43:28;;;;;;;14.82;10.10;;;14.50;61.50;;;;;;5127864;27;20101;-70
2021/04/20 07:46:17;;;;;;;18.35;10.75;;;14.70;59.90;;;;;;5134136;27;20046;-70
2021/04/20 07:48:49;;;;;;;19.13;10.50;;;14.60;59.80;;;;;;5134587;27;20059;-70
2021/04/20 07:51:42;;;;;;;15.85;10.40;;;14.80;60.40;;;;;;5132694;27;20042;-71
2021/04/20 07:54:17;;;;;;;13.55;10.75;;;15.00;60.40;;;;;;5134105;27;20475;-71
2021/04/20 07:56:56;;;;;;;15.40;10.60;;;14.90;60.40;;;;;;5133148;28;20035;-71
2021/04/20 07:59:53;;;;;;;16.63;10.45;;;15.30;60.10;;;;;;5134124;27;20063;-71
2021/04/20 08:02:37;;;;;;;16.05;10.70;;;15.50;59.90;;;;;;5134180;27;20039;-71
2021/04/20 08:05:27;;;;;;;13.57;9.38;;;15.70;57.40;;;;;;5134071;27;20525;-71
2021/04/20 08:07:58;;;;;;;13.65;9.20;;;15.90;59.10;;;;;;5133775;27;20042;-71
2021/04/20 08:10:38;;;;;;;12.80;9.02;;;16.00;57.40;;;;;;5133927;27;20035;-71
2021/04/20 08:13:36;;;;;;;12.90;9.75;;;16.20;57.00;;;;;;5134176;27;20122;-71
2021/04/20 08:16:11;;;;;;;17.33;9.45;;;16.30;54.80;;;;;;5132506;28;20035;-71
2021/04/20 08:18:52;;;;;;;14.63;9.43;;;16.40;54.50;;;;;;5134403;27;20099;-70
2021/04/20 08:21:21;;;;;;;16.67;9.48;;;16.20;54.60;;;;;;5134078;27;20070;-70
2021/04/20 08:23:49;;;;;;;15.60;9.57;;;16.40;56.10;;;;;;5133798;27;20479;-71
2021/04/20 08:26:32;;;;;;;15.68;9.90;;;16.60;55.50;;;;;;5133647;27;20054;-71
2021/04/20 08:29:10;;;;;;;15.25;9.38;;;16.70;53.30;;;;;;5133839;27;20039;-71
2021/04/20 08:31:49;;;;;;;16.77;10.00;;;16.30;54.80;;;;;;5132962;28;20120;-69
2021/04/20 08:34:37;;;;;;;13.90;10.63;;;16.50;54.10;;;;;;5134399;27;20123;-69
2021/04/20 08:37:03;;;;;;;15.43;10.18;;;16.40;55.60;;;;;;5133639;27;20038;-70
2021/04/20 08:39:47;;;;;;;15.95;9.32;;;16.40;56.10;;;;;;5133742;27;20039;-70
2021/04/20 08:42:23;;;;;;;16.52;9.75;;;16.50;55.70;;;;;;5132772;28;20164;-70
2021/04/20 08:45:25;;;;;;;16.80;9.52;;;16.70;55.00;;;;;;5133597;27;20039;-70
2021/04/20 08:48:15;;;;;;;16.42;8.70;;;16.70;54.70;;;;;;5133839;27;20042;-70
2021/04/20 08:50:55;;;;;;;16.38;9.10;;;16.60;53.80;;;;;;5137492;27;20039;-70
2021/04/20 08:53:54;;;;;;;16.65;9.40;;;16.80;52.30;;;;;;5137336;27;20047;-70
2021/04/20 08:56:43;;;;;;;17.52;9.30;;;16.80;51.70;;;;;;5137309;27;20447;-69
2021/04/20 08:59:44;;;;;;;14.10;8.77;;;16.80;52.10;;;;;;5137506;27;20490;-70
2021/04/20 09:02:28;;;;;;;12.82;8.70;;;16.80;52.40;;;;;;5137426;27;20046;-70
2021/04/20 09:05:13;;;;;;;14.30;9.05;;;16.90;52.80;;;;;;5135950;27;20039;-70
2021/04/20 09:07:55;;;;;;;14.13;8.38;;;17.00;50.80;;;;;;5136688;27;20484;-70
2021/04/20 09:10:31;;;;;;;10.95;8.30;;;16.90;50.70;;;;;;5136852;27;20031;-69
2021/04/20 09:13:09;;;;;;;11.30;7.82;;;16.90;51.20;;;;;;5136746;27;20091;-69
2021/04/20 09:15:38;;;;;;;11.80;8.73;;;17.00;52.10;;;;;;5135431;27;20042;-69
2021/04/20 09:18:06;;;;;;;15.15;8.18;;;16.90;49.50;;;;;;5136571;27;20035;-69
2021/04/20 09:20:44;;;;;;;10.57;8.82;;;16.60;49.90;;;;;;5135440;27;20038;-69
2021/04/20 09:23:38;;;;;;;13.95;7.90;;;16.70;49.40;;;;;;5136489;27;20075;-69
2021/04/20 09:26:22;;;;;;;11.77;8.38;;;16.70;49.70;;;;;;5136220;27;20058;-69
2021/04/20 09:29:19;;;;;;;12.95;7.75;;;16.70;53.00;;;;;;5136959;27;20059;-70
2021/04/20 09:32:13;;;;;;;12.18;8.02;;;16.50;51.10;;;;;;5136496;27;20031;-69
2021/04/20 09:34:42;;;;;;;10.55;7.95;;;16.80;49.90;;;;;;5131841;27;20055;-70
2021/04/20 09:37:09;;;;;;;13.38;7.95;;;16.70;49.70;;;;;;5134982;27;20042;-70
2021/04/20 09:39:40;;;;;;;16.58;7.75;;;16.70;49.70;;;;;;5136078;27;20111;-70
2021/04/20 09:42:08;;;;;;;12.80;7.32;;;16.50;49.90;;;;;;5136691;27;20489;-70
2021/04/20 09:45:09;;;;;;;13.38;7.90;;;16.70;48.70;;;;;;5136255;27;20035;-70
2021/04/20 09:47:43;;;;;;;10.23;7.40;;;16.70;50.10;;;;;;5136675;27;20156;-70
2021/04/20 09:50:28;;;;;;;9.98;8.52;;;16.50;51.10;;;;;;5136227;27;20127;-69
2021/04/20 09:53:21;;;;;;;13.82;8.45;;;16.60;51.30;;;;;;5136352;27;20383;-70
2021/04/20 09:56:16;;;;;;;13.65;8.60;;;16.60;50.70;;;;;;5135806;27;20042;-70
2021/04/20 09:58:43;;;;;;;12.23;8.68;;;16.50;49.80;;;;;;5136048;27;20059;-70
2021/04/20 10:01:28;;;;;;;12.60;7.68;;;16.60;51.30;;;;;;5134986;27;20039;-70
2021/04/20 10:04:03;;;;;;;12.68;9.27;;;16.50;51.40;;;;;;5134616;27;20043;-70
2021/04/20 10:06:50;;;;;;;12.30;8.90;;;16.50;50.80;;;;;;5135351;27;20035;-70
2021/04/20 10:09:37;;;;;;;15.32;7.95;;;16.30;51.50;;;;;;5135638;27;20088;-70
2021/04/20 10:12:12;;;;;;;12.90;7.65;;;16.40;49.60;;;;;;5135921;27;20096;-70
2021/04/20 10:14:59;;;;;;;10.23;7.65;;;16.40;50.20;;;;;;5135467;27;20069;-70
2021/04/20 10:17:55;;;;;;;11.45;7.60;;;16.40;49.20;;;;;;5135377;27;20084;-70
2021/04/20 10:20:37;;;;;;;11.32;8.18;;;16.30;49.70;;;;;;5135462;27;20035;-70
2021/04/20 10:23:43;;;;;;;14.55;8.70;;;16.20;51.70;;;;;;5135546;27;20114;-70
2021/04/20 10:26:40;;;;;;;15.68;7.80;;;16.20;51.70;;;;;;5135153;27;20046;-70
2021/04/20 10:29:27;;;;;;;12.27;7.72;;;16.30;51.20;;;;;;5135259;27;20038;-70
2021/04/20 10:32:06;;;;;;;11.40;8.30;;;16.40;49.40;;;;;;5135260;27;20434;-70
2021/04/20 10:34:35;;;;;;;12.25;6.57;;;16.40;49.70;;;;;;5135328;27;20031;-71
2021/04/20 10:37:02;;;;;;;10.75;6.75;;;16.50;45.90;;;;;;5134785;27;20035;-70
2021/04/20 10:39:30;;;;;;;11.23;7.05;;;16.40;46.10;;;;;;5134258;27;20031;-70
2021/04/20 10:41:56;;;;;;;11.43;6.93;;;16.50;48.70;;;;;;5134849;27;20042;-70
2021/04/20 10:44:31;;;;;;;13.30;7.22;;;16.50;46.90;;;;;;5135100;27;20456;-69
2021/04/20 10:46:58;;;;;;;11.05;6.63;;;16.60;47.90;;;;;;5134718;27;20395;-70
2021/04/20 10:49:27;;;;;;;14.52;6.82;;;16.70;48.30;;;;;;5135347;27;20039;-70
2021/04/20 10:51:57;;;;;;;8.70;6.57;;;16.80;49.20;;;;;;5133532;27;20206;-70
2021/04/20 10:54:27;;;;;;;8.85;6.10;;;16.80;47.80;;;;;;5134709;27;20035;-70
2021/04/20 10:56:56;;;;;;;10.20;6.47;;;16.80;48.20;;;;;;5134821;27;20035;-70
2021/04/20 10:59:42;;;;;;;11.00;6.50;;;16.90;47.40;;;;;;5134958;27;20032;-70
2021/04/20 11:02:19;;;;;;;11.75;6.00;;;16.90;48.00;;;;;;5133820;27;20494;-70
2021/04/20 11:04:47;;;;;;;11.77;5.90;;;16.70;47.70;;;;;;5134874;27;20042;-70
2021/04/20 11:07:37;;;;;;;16.05;5.50;;;16.80;48.30;;;;;;5134428;27;20042;-70
2021/04/20 11:10:08;;;;;;;15.63;6.47;;;16.90;47.00;;;;;;5126440;27;20074;-70
2021/04/20 11:12:41;;;;;;;10.55;5.00;;;16.90;46.30;;;;;;5134797;27;20039;-72
2021/04/20 11:15:07;;;;;;;8.03;4.60;;;16.90;45.50;;;;;;5134355;27;20060;-73
2021/04/20 11:17:42;;;;;;;8.73;5.20;;;16.90;44.00;;;;;;5134192;27;20346;-73
2021/04/20 11:20:15;;;;;;;9.77;4.82;;;16.90;44.60;;;;;;5134825;27;20120;-73
2021/04/20 11:23:08;;;;;;;8.63;5.07;;;16.80;44.10;;;;;;5133276;27;20406;-73
2021/04/20 11:25:35;;;;;;;8.38;5.13;;;16.90;44.50;;;;;;5134163;27;20126;-73
2021/04/20 11:28:09;;;;;;;6.38;4.65;;;16.90;43.90;;;;;;5134073;27;20047;-73
2021/04/20 11:30:37;;;;;;;9.05;5.45;;;16.90;44.20;;;;;;5134625;27;20035;-72
2021/04/20 11:33:12;;;;;;;9.40;5.20;;;16.90;43.80;;;;;;5134512;27;20099;-73
2021/04/20 11:35:50;;;;;;;7.65;4.70;;;16.90;45.30;;;;;;5134040;27;20069;-72
2021/04/20 11:38:18;;;;;;;10.45;5.28;;;16.90;44.00;;;;;;5134139;27;20039;-73
2021/04/20 11:40:51;;;;;;;7.05;3.83;;;16.90;44.30;;;;;;5133788;27;20491;-73
2021/04/20 11:43:16;;;;;;;;;;;17.00;39.90;;;;;;5134443;27;20483;-73
2021/04/20 11:45:45;;;;;;;8.77;4.80;;;16.90;39.90;;;;;;5132412;28;19915;-73
2021/04/20 11:48:14;;;;;;;8.00;4.90;;;16.90;41.30;;;;;;5133994;27;20032;-73
2021/04/20 11:50:45;;;;;;;13.13;4.60;;;17.00;41.90;;;;;;5134098;27;20031;-73
2021/04/20 11:53:12;;;;;;;8.85;4.68;;;17.10;40.50;;;;;;5134124;27;20039;-72
2021/04/20 11:55:43;;;;;;;8.27;4.80;;;17.00;41.20;;;;;;5134089;27;20069;-72
2021/04/20 11:58:19;;;;;;;9.48;4.20;;;17.00;42.10;;;;;;5133967;27;20084;-73
2021/04/20 12:00:45;;;;;;;10.95;4.85;;;17.00;42.30;;;;;;5133904;27;20035;-72
2021/04/20 12:03:14;;;;;;;11.05;5.05;;;17.10;42.30;;;;;;5133806;27;20036;-72
2021/04/20 12:05:41;;;;;;;8.50;5.15;;;17.10;41.70;;;;;;5133509;27;20050;-73
2021/04/20 12:08:13;;;;;;;7.72;4.03;;;17.10;41.90;;;;;;5134022;27;20031;-72
2021/04/20 12:10:40;;;;;;;9.00;4.32;;;17.10;41.60;;;;;;5134476;27;20039;-73
2021/04/20 12:13:07;;;;;;;7.35;4.13;;;17.20;43.00;;;;;;5134192;27;20039;-72
2021/04/20 12:15:34;;;;;;;9.18;4.43;;;17.30;40.70;;;;;;5133810;27;20070;-72
2021/04/20 12:18:00;;;;;;;7.65;4.00;;;17.30;39.40;;;;;;5134136;27;20080;-72
2021/04/20 12:20:28;;;;;;;5.93;4.00;;;17.30;39.50;;;;;;5133995;27;20046;-72
2021/04/20 12:22:58;;;;;;;7.20;4.07;;;17.20;39.10;;;;;;5137108;27;20039;-72
2021/04/20 12:25:25;;;;;;;6.65;3.53;;;17.10;38.40;;;;;;5137394;27;20035;-72
2021/04/20 12:27:53;;;;;;;6.80;3.58;;;17.10;37.80;;;;;;5137361;27;20375;-72
2021/04/20 12:30:23;;;;;;;8.63;3.75;;;17.10;37.60;;;;;;5137604;27;20042;-72
2021/04/20 12:32:49;;;;;;;8.10;3.88;;;17.10;38.20;;;;;;5137501;27;20066;-72
2021/04/20 12:35:24;;;;;;;7.85;3.97;;;17.10;39.00;;;;;;5135944;27;20618;-73
2021/04/20 12:37:54;;;;;;;11.48;3.67;;;17.30;38.00;;;;;;5137476;27;20032;-73
2021/04/20 12:40:22;;;;;;;6.22;3.15;;;17.30;39.00;;;;;;5138217;27;20031;-73
2021/04/20 12:42:52;;;;;;;9.07;3.28;;;17.40;36.90;;;;;;5137839;27;20031;-73
2021/04/20 12:45:26;;;;;;;5.97;3.13;;;17.30;36.80;;;;;;5136267;27;20120;-73
2021/04/20 12:47:55;;;;;;;6.55;3.17;;;17.40;38.10;;;;;;5136983;27;20062;-73
2021/04/20 12:50:27;;;;;;;8.68;3.45;;;17.30;38.50;;;;;;5137139;27;20114;-73
2021/04/20 12:52:53;;;;;;;4.65;3.08;;;17.50;38.00;;;;;;5137472;27;20100;-72
2021/04/20 12:55:26;;;;;;;10.10;3.88;;;17.40;37.10;;;;;;5135437;27;20046;-73
2021/04/20 12:57:53;;;;;;;7.40;3.30;;;17.30;38.00;;;;;;5137022;27;20039;-73
2021/04/20 13:00:29;;;;;;;5.88;3.45;;;17.40;39.60;;;;;;5136924;27;20035;-73
2021/04/20 13:02:58;;;;;;;5.78;3.35;;;17.30;40.30;;;;;;5137209;27;20051;-73